sensor_id;sensor_type;location;lat;lon;timestamp;temperature;humidity
64961;SHT31;51487;52.266;10.542;2022-10-19T00:01:12;11.37;89.50
64961;SHT31;51487;52.266;10.542;2022-10-19T00:03:39;11.39;89.18
64961;SHT31;51487;52.266;10.542;2022-10-19T00:06:30;11.44;89.48
64961;SHT31;51487;52.266;10.542;2022-10-19T00:09:03;11.41;89.51
64961;SHT31;51487;52.266;10.542;2022-10-19T00:11:31;11.50;89.03
64961;SHT31;51487;52.266;10.542;2022-10-19T00:13:58;11.51;89.08
64961;SHT31;51487;52.266;10.542;2022-10-19T00:16:28;11.56;88.23
64961;SHT31;51487;52.266;10.542;2022-10-19T00:18:59;11.56;88.21
64961;SHT31;51487;52.266;10.542;2022-10-19T00:21:26;11.46;88.21
64961;SHT31;51487;52.266;10.542;2022-10-19T00:23:52;11.57;88.05
64961;SHT31;51487;52.266;10.542;2022-10-19T00:26:17;11.63;86.86
64961;SHT31;51487;52.266;10.542;2022-10-19T00:28:43;11.66;86.92
64961;SHT31;51487;52.266;10.542;2022-10-19T00:31:16;11.67;86.84
64961;SHT31;51487;52.266;10.542;2022-10-19T00:33:44;11.71;86.36
64961;SHT31;51487;52.266;10.542;2022-10-19T00:36:27;11.78;86.14
64961;SHT31;51487;52.266;10.542;2022-10-19T00:38:53;11.71;86.56
64961;SHT31;51487;52.266;10.542;2022-10-19T00:41:22;11.77;85.86
64961;SHT31;51487;52.266;10.542;2022-10-19T00:46:18;11.75;84.72
64961;SHT31;51487;52.266;10.542;2022-10-19T00:48:43;11.75;84.85
64961;SHT31;51487;52.266;10.542;2022-10-19T00:51:09;11.88;84.49
64961;SHT31;51487;52.266;10.542;2022-10-19T00:53:35;11.99;83.78
64961;SHT31;51487;52.266;10.542;2022-10-19T00:56:09;11.97;83.16
64961;SHT31;51487;52.266;10.542;2022-10-19T00:58:36;11.97;83.11
64961;SHT31;51487;52.266;10.542;2022-10-19T01:01:04;12.01;83.05
64961;SHT31;51487;52.266;10.542;2022-10-19T01:03:33;12.06;83.26
64961;SHT31;51487;52.266;10.542;2022-10-19T01:05:58;12.06;83.24
64961;SHT31;51487;52.266;10.542;2022-10-19T01:08:25;12.01;83.90
64961;SHT31;51487;52.266;10.542;2022-10-19T01:26:42;12.01;84.53
64961;SHT31;51487;52.266;10.542;2022-10-19T01:30:01;11.95;84.22
64961;SHT31;51487;52.266;10.542;2022-10-19T01:32:49;12.08;83.49
64961;SHT31;51487;52.266;10.542;2022-10-19T01:35:39;12.11;83.82
64961;SHT31;51487;52.266;10.542;2022-10-19T01:41:30;12.08;83.27
64961;SHT31;51487;52.266;10.542;2022-10-19T01:44:23;12.14;83.58
64961;SHT31;51487;52.266;10.542;2022-10-19T01:46:55;12.06;83.23
64961;SHT31;51487;52.266;10.542;2022-10-19T01:49:41;12.01;83.31
64961;SHT31;51487;52.266;10.542;2022-10-19T01:52:13;12.06;83.63
64961;SHT31;51487;52.266;10.542;2022-10-19T01:54:47;12.01;83.72
64961;SHT31;51487;52.266;10.542;2022-10-19T01:57:22;11.97;85.04
64961;SHT31;51487;52.266;10.542;2022-10-19T01:59:51;12.05;84.24
64961;SHT31;51487;52.266;10.542;2022-10-19T02:02:19;12.06;84.14
64961;SHT31;51487;52.266;10.542;2022-10-19T02:04:47;12.02;83.23
64961;SHT31;51487;52.266;10.542;2022-10-19T02:07:15;12.11;83.05
64961;SHT31;51487;52.266;10.542;2022-10-19T02:09:40;12.12;83.31
64961;SHT31;51487;52.266;10.542;2022-10-19T02:12:09;11.90;83.55
64961;SHT31;51487;52.266;10.542;2022-10-19T02:14:49;12.04;83.47
64961;SHT31;51487;52.266;10.542;2022-10-19T02:17:27;12.05;83.31
64961;SHT31;51487;52.266;10.542;2022-10-19T02:19:56;12.01;83.51
64961;SHT31;51487;52.266;10.542;2022-10-19T02:22:22;12.06;82.86
64961;SHT31;51487;52.266;10.542;2022-10-19T02:24:47;11.99;83.15
64961;SHT31;51487;52.266;10.542;2022-10-19T02:27:13;12.08;83.27
64961;SHT31;51487;52.266;10.542;2022-10-19T02:29:39;12.11;82.62
64961;SHT31;51487;52.266;10.542;2022-10-19T02:32:06;12.05;82.88
64961;SHT31;51487;52.266;10.542;2022-10-19T02:34:32;12.01;83.32
64961;SHT31;51487;52.266;10.542;2022-10-19T02:36:59;11.99;83.09
64961;SHT31;51487;52.266;10.542;2022-10-19T02:39:25;11.99;83.69
64961;SHT31;51487;52.266;10.542;2022-10-19T02:44:45;11.90;83.82
64961;SHT31;51487;52.266;10.542;2022-10-19T02:47:18;11.97;83.56
64961;SHT31;51487;52.266;10.542;2022-10-19T02:49:46;12.02;83.59
64961;SHT31;51487;52.266;10.542;2022-10-19T02:52:13;11.95;83.77
64961;SHT31;51487;52.266;10.542;2022-10-19T02:54:42;11.78;84.33
64961;SHT31;51487;52.266;10.542;2022-10-19T02:57:23;11.91;84.26
64961;SHT31;51487;52.266;10.542;2022-10-19T02:59:50;11.70;84.36
64961;SHT31;51487;52.266;10.542;2022-10-19T03:02:18;11.53;85.40
64961;SHT31;51487;52.266;10.542;2022-10-19T03:04:44;11.44;85.69
64961;SHT31;51487;52.266;10.542;2022-10-19T03:07:13;11.53;85.48
64961;SHT31;51487;52.266;10.542;2022-10-19T03:09:40;11.56;85.67
64961;SHT31;51487;52.266;10.542;2022-10-19T03:12:06;11.69;84.95
64961;SHT31;51487;52.266;10.542;2022-10-19T03:14:31;11.60;84.90
64961;SHT31;51487;52.266;10.542;2022-10-19T03:16:57;11.67;85.18
64961;SHT31;51487;52.266;10.542;2022-10-19T03:19:23;11.84;84.68
64961;SHT31;51487;52.266;10.542;2022-10-19T03:21:48;11.84;85.03
64961;SHT31;51487;52.266;10.542;2022-10-19T03:24:14;11.97;83.65
64961;SHT31;51487;52.266;10.542;2022-10-19T03:26:40;11.98;83.63
64961;SHT31;51487;52.266;10.542;2022-10-19T03:29:05;11.95;84.27
64961;SHT31;51487;52.266;10.542;2022-10-19T03:31:31;11.98;84.14
64961;SHT31;51487;52.266;10.542;2022-10-19T03:33:56;12.05;84.26
64961;SHT31;51487;52.266;10.542;2022-10-19T03:36:34;12.06;84.19
64961;SHT31;51487;52.266;10.542;2022-10-19T03:39:04;11.94;84.97
64961;SHT31;51487;52.266;10.542;2022-10-19T03:41:34;11.91;85.43
64961;SHT31;51487;52.266;10.542;2022-10-19T03:43:59;11.99;85.35
64961;SHT31;51487;52.266;10.542;2022-10-19T03:46:26;11.95;85.67
64961;SHT31;51487;52.266;10.542;2022-10-19T03:48:53;12.01;85.35
64961;SHT31;51487;52.266;10.542;2022-10-19T03:51:25;11.99;85.99
64961;SHT31;51487;52.266;10.542;2022-10-19T03:53:53;11.98;85.63
64961;SHT31;51487;52.266;10.542;2022-10-19T03:56:22;11.98;85.77
64961;SHT31;51487;52.266;10.542;2022-10-19T03:58:50;11.94;85.78
64961;SHT31;51487;52.266;10.542;2022-10-19T04:01:25;11.88;85.97
64961;SHT31;51487;52.266;10.542;2022-10-19T04:04:00;11.81;86.19
64961;SHT31;51487;52.266;10.542;2022-10-19T04:06:30;11.64;86.85
64961;SHT31;51487;52.266;10.542;2022-10-19T04:08:57;11.70;86.79
64961;SHT31;51487;52.266;10.542;2022-10-19T04:11:27;11.74;86.27
64961;SHT31;51487;52.266;10.542;2022-10-19T04:13:57;11.60;87.18
64961;SHT31;51487;52.266;10.542;2022-10-19T04:16:24;11.63;87.60
64961;SHT31;51487;52.266;10.542;2022-10-19T04:18:51;11.81;87.03
64961;SHT31;51487;52.266;10.542;2022-10-19T04:24:17;11.78;86.94
64961;SHT31;51487;52.266;10.542;2022-10-19T04:26:51;11.84;86.53
64961;SHT31;51487;52.266;10.542;2022-10-19T04:29:18;11.85;86.63
64961;SHT31;51487;52.266;10.542;2022-10-19T04:31:45;11.92;86.60
64961;SHT31;51487;52.266;10.542;2022-10-19T04:34:12;11.87;86.77
64961;SHT31;51487;52.266;10.542;2022-10-19T04:36:37;11.99;86.13
64961;SHT31;51487;52.266;10.542;2022-10-19T04:39:05;11.87;86.40
64961;SHT31;51487;52.266;10.542;2022-10-19T04:41:31;11.92;86.41
64961;SHT31;51487;52.266;10.542;2022-10-19T04:44:00;11.70;86.70
64961;SHT31;51487;52.266;10.542;2022-10-19T04:46:27;11.82;86.86
64961;SHT31;51487;52.266;10.542;2022-10-19T04:48:55;11.85;87.23
64961;SHT31;51487;52.266;10.542;2022-10-19T04:51:22;11.88;86.53
64961;SHT31;51487;52.266;10.542;2022-10-19T04:53:48;11.90;86.48
64961;SHT31;51487;52.266;10.542;2022-10-19T04:56:21;11.92;86.56
64961;SHT31;51487;52.266;10.542;2022-10-19T04:58:48;11.98;86.66
64961;SHT31;51487;52.266;10.542;2022-10-19T05:01:20;12.04;86.09
64961;SHT31;51487;52.266;10.542;2022-10-19T05:03:47;11.98;86.21
64961;SHT31;51487;52.266;10.542;2022-10-19T05:06:14;12.08;86.08
64961;SHT31;51487;52.266;10.542;2022-10-19T05:08:40;12.08;86.23
64961;SHT31;51487;52.266;10.542;2022-10-19T05:11:12;12.02;86.25
64961;SHT31;51487;52.266;10.542;2022-10-19T05:13:42;12.01;86.47
64961;SHT31;51487;52.266;10.542;2022-10-19T05:16:12;11.94;86.69
64961;SHT31;51487;52.266;10.542;2022-10-19T05:18:41;11.95;87.02
64961;SHT31;51487;52.266;10.542;2022-10-19T05:21:10;11.98;86.77
64961;SHT31;51487;52.266;10.542;2022-10-19T05:23:36;12.01;86.49
64961;SHT31;51487;52.266;10.542;2022-10-19T05:26:06;12.01;86.63
64961;SHT31;51487;52.266;10.542;2022-10-19T05:28:33;12.05;86.59
64961;SHT31;51487;52.266;10.542;2022-10-19T05:31:14;12.05;86.66
64961;SHT31;51487;52.266;10.542;2022-10-19T05:33:41;12.05;86.65
64961;SHT31;51487;52.266;10.542;2022-10-19T05:36:19;12.18;86.26
64961;SHT31;51487;52.266;10.542;2022-10-19T05:38:48;11.91;86.41
64961;SHT31;51487;52.266;10.542;2022-10-19T05:41:14;11.91;86.43
64961;SHT31;51487;52.266;10.542;2022-10-19T05:43:41;11.85;86.89
64961;SHT31;51487;52.266;10.542;2022-10-19T05:46:14;11.90;86.83
64961;SHT31;51487;52.266;10.542;2022-10-19T05:48:41;11.91;86.64
64961;SHT31;51487;52.266;10.542;2022-10-19T05:51:15;11.87;86.87
64961;SHT31;51487;52.266;10.542;2022-10-19T05:53:42;11.99;86.69
64961;SHT31;51487;52.266;10.542;2022-10-19T05:56:12;12.05;86.17
64961;SHT31;51487;52.266;10.542;2022-10-19T05:58:38;11.81;86.47
64961;SHT31;51487;52.266;10.542;2022-10-19T06:01:04;11.67;87.32
64961;SHT31;51487;52.266;10.542;2022-10-19T06:03:29;11.80;87.08
64961;SHT31;51487;52.266;10.542;2022-10-19T06:05:55;11.75;87.00
64961;SHT31;51487;52.266;10.542;2022-10-19T06:08:23;11.71;86.67
64961;SHT31;51487;52.266;10.542;2022-10-19T06:10:50;11.87;85.82
64961;SHT31;51487;52.266;10.542;2022-10-19T06:13:17;11.88;85.38
64961;SHT31;51487;52.266;10.542;2022-10-19T06:15:43;11.97;85.41
64961;SHT31;51487;52.266;10.542;2022-10-19T06:18:11;12.06;85.27
64961;SHT31;51487;52.266;10.542;2022-10-19T06:20:39;12.04;85.01
64961;SHT31;51487;52.266;10.542;2022-10-19T06:23:06;12.02;85.11
64961;SHT31;51487;52.266;10.542;2022-10-19T06:25:33;12.04;84.43
64961;SHT31;51487;52.266;10.542;2022-10-19T06:28:00;12.05;84.58
64961;SHT31;51487;52.266;10.542;2022-10-19T06:30:26;12.05;84.71
64961;SHT31;51487;52.266;10.542;2022-10-19T06:32:51;12.11;84.32
64961;SHT31;51487;52.266;10.542;2022-10-19T06:35:17;12.05;84.12
64961;SHT31;51487;52.266;10.542;2022-10-19T06:37:43;12.08;84.50
64961;SHT31;51487;52.266;10.542;2022-10-19T06:40:09;11.88;85.50
64961;SHT31;51487;52.266;10.542;2022-10-19T06:42:35;12.05;84.60
64961;SHT31;51487;52.266;10.542;2022-10-19T06:45:08;12.06;84.54
64961;SHT31;51487;52.266;10.542;2022-10-19T06:47:35;12.15;84.33
64961;SHT31;51487;52.266;10.542;2022-10-19T06:50:05;12.12;84.56
64961;SHT31;51487;52.266;10.542;2022-10-19T06:52:32;12.15;84.38
64961;SHT31;51487;52.266;10.542;2022-10-19T06:54:58;12.30;83.94
64961;SHT31;51487;52.266;10.542;2022-10-19T06:57:23;12.33;83.42
64961;SHT31;51487;52.266;10.542;2022-10-19T06:59:49;12.35;83.37
64961;SHT31;51487;52.266;10.542;2022-10-19T07:02:14;12.25;83.34
64961;SHT31;51487;52.266;10.542;2022-10-19T07:04:40;12.17;83.92
64961;SHT31;51487;52.266;10.542;2022-10-19T07:07:06;12.15;84.03
64961;SHT31;51487;52.266;10.542;2022-10-19T07:09:31;12.08;83.66
64961;SHT31;51487;52.266;10.542;2022-10-19T07:11:57;12.22;83.81
64961;SHT31;51487;52.266;10.542;2022-10-19T07:14:22;12.29;83.04
64961;SHT31;51487;52.266;10.542;2022-10-19T07:16:53;12.26;83.31
64961;SHT31;51487;52.266;10.542;2022-10-19T07:19:20;12.15;83.16
64961;SHT31;51487;52.266;10.542;2022-10-19T07:21:50;12.18;83.15
64961;SHT31;51487;52.266;10.542;2022-10-19T07:24:16;12.17;83.31
64961;SHT31;51487;52.266;10.542;2022-10-19T07:26:41;12.25;83.58
64961;SHT31;51487;52.266;10.542;2022-10-19T07:29:07;12.32;82.85
64961;SHT31;51487;52.266;10.542;2022-10-19T07:31:32;12.33;81.23
64961;SHT31;51487;52.266;10.542;2022-10-19T07:34:01;12.36;82.16
64961;SHT31;51487;52.266;10.542;2022-10-19T07:36:30;12.40;82.52
64961;SHT31;51487;52.266;10.542;2022-10-19T07:38:56;12.60;82.58
64961;SHT31;51487;52.266;10.542;2022-10-19T07:41:24;12.60;80.83
64961;SHT31;51487;52.266;10.542;2022-10-19T07:43:51;12.48;81.33
64961;SHT31;51487;52.266;10.542;2022-10-19T07:46:25;12.56;81.00
64961;SHT31;51487;52.266;10.542;2022-10-19T07:48:52;12.40;81.32
64961;SHT31;51487;52.266;10.542;2022-10-19T07:51:18;12.42;81.61
64961;SHT31;51487;52.266;10.542;2022-10-19T07:53:45;12.48;78.35
64961;SHT31;51487;52.266;10.542;2022-10-19T07:56:22;12.49;78.84
64961;SHT31;51487;52.266;10.542;2022-10-19T07:58:49;12.60;78.85
64961;SHT31;51487;52.266;10.542;2022-10-19T08:01:19;12.57;78.09
64961;SHT31;51487;52.266;10.542;2022-10-19T08:03:46;12.57;78.88
64961;SHT31;51487;52.266;10.542;2022-10-19T08:06:15;12.53;78.79
64961;SHT31;51487;52.266;10.542;2022-10-19T08:08:42;12.57;77.22
64961;SHT31;51487;52.266;10.542;2022-10-19T08:11:32;12.52;77.70
64961;SHT31;51487;52.266;10.542;2022-10-19T08:13:59;12.66;77.35
64961;SHT31;51487;52.266;10.542;2022-10-19T08:16:34;12.67;77.77
64961;SHT31;51487;52.266;10.542;2022-10-19T08:19:09;12.81;75.80
64961;SHT31;51487;52.266;10.542;2022-10-19T08:21:37;12.69;75.73
64961;SHT31;51487;52.266;10.542;2022-10-19T08:24:04;12.81;75.26
64961;SHT31;51487;52.266;10.542;2022-10-19T08:26:33;12.80;74.88
64961;SHT31;51487;52.266;10.542;2022-10-19T08:29:07;12.81;75.04
64961;SHT31;51487;52.266;10.542;2022-10-19T08:31:34;12.93;74.34
64961;SHT31;51487;52.266;10.542;2022-10-19T08:34:01;12.75;75.64
64961;SHT31;51487;52.266;10.542;2022-10-19T08:36:26;12.93;74.96
64961;SHT31;51487;52.266;10.542;2022-10-19T08:38:56;13.01;74.80
64961;SHT31;51487;52.266;10.542;2022-10-19T08:41:36;12.88;73.22
64961;SHT31;51487;52.266;10.542;2022-10-19T08:50:28;13.04;72.46
64961;SHT31;51487;52.266;10.542;2022-10-19T08:53:09;13.08;72.58
64961;SHT31;51487;52.266;10.542;2022-10-19T08:55:43;13.08;73.68
64961;SHT31;51487;52.266;10.542;2022-10-19T08:58:35;13.01;74.62
64961;SHT31;51487;52.266;10.542;2022-10-19T09:01:15;12.98;74.81
64961;SHT31;51487;52.266;10.542;2022-10-19T09:04:39;13.06;74.65
64961;SHT31;51487;52.266;10.542;2022-10-19T09:07:32;13.17;73.88
64961;SHT31;51487;52.266;10.542;2022-10-19T09:09:42;12.88;74.37
64961;SHT31;51487;52.266;10.542;2022-10-19T09:12:15;13.12;72.09
64961;SHT31;51487;52.266;10.542;2022-10-19T09:15:10;13.14;69.89
64961;SHT31;51487;52.266;10.542;2022-10-19T09:17:37;13.12;70.06
64961;SHT31;51487;52.266;10.542;2022-10-19T09:20:21;13.22;69.36
64961;SHT31;51487;52.266;10.542;2022-10-19T09:25:57;13.19;69.62
64961;SHT31;51487;52.266;10.542;2022-10-19T09:30:57;13.54;68.83
64961;SHT31;51487;52.266;10.542;2022-10-19T09:33:34;13.59;69.60
64961;SHT31;51487;52.266;10.542;2022-10-19T09:36:05;13.61;68.33
64961;SHT31;51487;52.266;10.542;2022-10-19T09:38:32;13.75;67.84
64961;SHT31;51487;52.266;10.542;2022-10-19T09:41:11;13.85;68.20
64961;SHT31;51487;52.266;10.542;2022-10-19T09:43:42;13.87;66.23
64961;SHT31;51487;52.266;10.542;2022-10-19T09:46:19;13.72;66.89
64961;SHT31;51487;52.266;10.542;2022-10-19T09:48:51;13.65;67.02
64961;SHT31;51487;52.266;10.542;2022-10-19T09:51:18;13.76;66.51
64961;SHT31;51487;52.266;10.542;2022-10-19T09:53:46;13.70;66.04
64961;SHT31;51487;52.266;10.542;2022-10-19T09:56:20;13.76;67.10
64961;SHT31;51487;52.266;10.542;2022-10-19T09:58:53;13.67;68.00
64961;SHT31;51487;52.266;10.542;2022-10-19T10:04:17;13.77;66.64
64961;SHT31;51487;52.266;10.542;2022-10-19T10:06:46;13.63;67.73
64961;SHT31;51487;52.266;10.542;2022-10-19T10:09:18;13.70;66.90
64961;SHT31;51487;52.266;10.542;2022-10-19T10:11:49;13.76;66.11
64961;SHT31;51487;52.266;10.542;2022-10-19T10:14:29;13.67;65.75
64961;SHT31;51487;52.266;10.542;2022-10-19T10:17:02;13.70;66.02
64961;SHT31;51487;52.266;10.542;2022-10-19T10:19:31;13.65;67.25
64961;SHT31;51487;52.266;10.542;2022-10-19T10:21:59;13.80;66.55
64961;SHT31;51487;52.266;10.542;2022-10-19T10:24:30;13.93;66.73
64961;SHT31;51487;52.266;10.542;2022-10-19T10:27:02;13.91;66.80
64961;SHT31;51487;52.266;10.542;2022-10-19T10:29:34;14.03;65.98
64961;SHT31;51487;52.266;10.542;2022-10-19T10:32:17;13.86;67.11
64961;SHT31;51487;52.266;10.542;2022-10-19T10:35:05;13.73;66.64
64961;SHT31;51487;52.266;10.542;2022-10-19T10:37:50;13.76;67.04
64961;SHT31;51487;52.266;10.542;2022-10-19T10:40:28;13.75;67.98
64961;SHT31;51487;52.266;10.542;2022-10-19T10:43:12;13.58;67.99
64961;SHT31;51487;52.266;10.542;2022-10-19T10:45:50;13.51;68.18
64961;SHT31;51487;52.266;10.542;2022-10-19T10:48:38;13.39;67.65
64961;SHT31;51487;52.266;10.542;2022-10-19T10:51:19;13.41;66.99
64961;SHT31;51487;52.266;10.542;2022-10-19T10:53:45;13.41;66.15
64961;SHT31;51487;52.266;10.542;2022-10-19T10:56:23;13.19;67.39
64961;SHT31;51487;52.266;10.542;2022-10-19T10:59:00;13.25;68.37
64961;SHT31;51487;52.266;10.542;2022-10-19T11:01:41;13.21;68.37
64961;SHT31;51487;52.266;10.542;2022-10-19T11:04:18;13.28;67.61
64961;SHT31;51487;52.266;10.542;2022-10-19T11:06:58;13.41;67.91
64961;SHT31;51487;52.266;10.542;2022-10-19T11:09:41;13.51;66.65
64961;SHT31;51487;52.266;10.542;2022-10-19T11:12:14;13.45;67.76
64961;SHT31;51487;52.266;10.542;2022-10-19T11:15:03;13.56;67.78
64961;SHT31;51487;52.266;10.542;2022-10-19T11:17:35;13.56;67.42
64961;SHT31;51487;52.266;10.542;2022-10-19T11:20:03;13.59;67.70
64961;SHT31;51487;52.266;10.542;2022-10-19T11:22:53;13.70;66.17
64961;SHT31;51487;52.266;10.542;2022-10-19T11:25:38;13.55;66.64
64961;SHT31;51487;52.266;10.542;2022-10-19T11:31:43;13.65;66.78
64961;SHT31;51487;52.266;10.542;2022-10-19T11:37:51;13.58;67.50
64961;SHT31;51487;52.266;10.542;2022-10-19T11:43:53;13.91;66.55
64961;SHT31;51487;52.266;10.542;2022-10-19T11:52:15;13.72;66.76
64961;SHT31;51487;52.266;10.542;2022-10-19T11:58:02;14.00;66.28
64961;SHT31;51487;52.266;10.542;2022-10-19T12:00:46;14.06;66.43
64961;SHT31;51487;52.266;10.542;2022-10-19T12:04:02;14.03;66.88
64961;SHT31;51487;52.266;10.542;2022-10-19T12:09:47;13.95;66.69
64961;SHT31;51487;52.266;10.542;2022-10-19T12:15:30;14.10;66.39
64961;SHT31;51487;52.266;10.542;2022-10-19T12:18:24;13.89;66.99
64961;SHT31;51487;52.266;10.542;2022-10-19T12:20:56;14.03;66.45
64961;SHT31;51487;52.266;10.542;2022-10-19T12:23:33;13.97;66.64
64961;SHT31;51487;52.266;10.542;2022-10-19T12:26:03;13.93;67.04
64961;SHT31;51487;52.266;10.542;2022-10-19T12:28:37;13.93;67.19
64961;SHT31;51487;52.266;10.542;2022-10-19T12:31:04;13.85;68.19
64961;SHT31;51487;52.266;10.542;2022-10-19T12:36:40;13.59;68.52
64961;SHT31;51487;52.266;10.542;2022-10-19T12:45:20;13.54;69.30
64961;SHT31;51487;52.266;10.542;2022-10-19T12:48:13;13.45;68.74
64961;SHT31;51487;52.266;10.542;2022-10-19T13:01:19;13.45;69.45
64961;SHT31;51487;52.266;10.542;2022-10-19T13:03:49;13.48;68.80
64961;SHT31;51487;52.266;10.542;2022-10-19T13:11:18;13.66;69.62
64961;SHT31;51487;52.266;10.542;2022-10-19T13:14:06;13.62;68.65
64961;SHT31;51487;52.266;10.542;2022-10-19T13:19:23;13.76;68.02
64961;SHT31;51487;52.266;10.542;2022-10-19T13:22:25;13.69;68.81
64961;SHT31;51487;52.266;10.542;2022-10-19T13:25:22;13.93;67.12
64961;SHT31;51487;52.266;10.542;2022-10-19T13:41:48;13.93;67.59
64961;SHT31;51487;52.266;10.542;2022-10-19T13:44:21;13.87;67.70
64961;SHT31;51487;52.266;10.542;2022-10-19T13:47:34;13.85;68.69
64961;SHT31;51487;52.266;10.542;2022-10-19T13:50:11;13.80;68.28
64961;SHT31;51487;52.266;10.542;2022-10-19T13:52:52;13.69;68.62
64961;SHT31;51487;52.266;10.542;2022-10-19T14:07:24;13.73;68.24
64961;SHT31;51487;52.266;10.542;2022-10-19T14:10:16;13.83;68.04
64961;SHT31;51487;52.266;10.542;2022-10-19T14:12:44;13.65;67.39
64961;SHT31;51487;52.266;10.542;2022-10-19T14:17:43;13.79;67.66
64961;SHT31;51487;52.266;10.542;2022-10-19T14:20:31;13.96;67.51
64961;SHT31;51487;52.266;10.542;2022-10-19T14:23:00;13.87;67.30
64961;SHT31;51487;52.266;10.542;2022-10-19T14:25:59;13.80;67.32
64961;SHT31;51487;52.266;10.542;2022-10-19T14:28:27;13.85;67.23
64961;SHT31;51487;52.266;10.542;2022-10-19T14:31:03;13.72;67.37
64961;SHT31;51487;52.266;10.542;2022-10-19T14:33:34;13.69;67.34
64961;SHT31;51487;52.266;10.542;2022-10-19T14:36:01;13.85;67.03
64961;SHT31;51487;52.266;10.542;2022-10-19T14:38:40;13.85;66.97
64961;SHT31;51487;52.266;10.542;2022-10-19T14:41:21;13.82;66.38
64961;SHT31;51487;52.266;10.542;2022-10-19T14:43:57;13.89;67.44
64961;SHT31;51487;52.266;10.542;2022-10-19T14:46:29;13.90;66.87
64961;SHT31;51487;52.266;10.542;2022-10-19T14:49:02;13.89;66.49
64961;SHT31;51487;52.266;10.542;2022-10-19T14:51:37;13.87;66.59
64961;SHT31;51487;52.266;10.542;2022-10-19T14:56:59;14.10;66.92
64961;SHT31;51487;52.266;10.542;2022-10-19T15:04:51;13.87;67.91
64961;SHT31;51487;52.266;10.542;2022-10-19T15:07:33;13.91;67.31
64961;SHT31;51487;52.266;10.542;2022-10-19T15:10:04;13.95;68.00
64961;SHT31;51487;52.266;10.542;2022-10-19T15:12:41;13.77;68.11
64961;SHT31;51487;52.266;10.542;2022-10-19T15:15:18;13.86;68.01
64961;SHT31;51487;52.266;10.542;2022-10-19T15:18:15;13.72;68.34
64961;SHT31;51487;52.266;10.542;2022-10-19T15:20:40;13.51;68.79
64961;SHT31;51487;52.266;10.542;2022-10-19T15:23:42;13.39;69.47
64961;SHT31;51487;52.266;10.542;2022-10-19T15:28:42;13.34;70.65
64961;SHT31;51487;52.266;10.542;2022-10-19T15:31:22;13.27;72.42
64961;SHT31;51487;52.266;10.542;2022-10-19T15:33:55;13.07;70.34
64961;SHT31;51487;52.266;10.542;2022-10-19T15:36:22;13.03;70.98
64961;SHT31;51487;52.266;10.542;2022-10-19T15:39:00;12.97;71.88
64961;SHT31;51487;52.266;10.542;2022-10-19T15:41:33;12.90;72.02
64961;SHT31;51487;52.266;10.542;2022-10-19T15:44:00;12.81;72.97
64961;SHT31;51487;52.266;10.542;2022-10-19T15:46:34;12.75;72.67
64961;SHT31;51487;52.266;10.542;2022-10-19T15:49:31;12.63;73.25
64961;SHT31;51487;52.266;10.542;2022-10-19T15:51:49;12.56;72.54
64961;SHT31;51487;52.266;10.542;2022-10-19T15:54:17;12.50;72.90
64961;SHT31;51487;52.266;10.542;2022-10-19T15:56:50;12.48;73.24
64961;SHT31;51487;52.266;10.542;2022-10-19T15:59:19;12.38;73.16
64961;SHT31;51487;52.266;10.542;2022-10-19T16:01:47;12.32;73.44
64961;SHT31;51487;52.266;10.542;2022-10-19T16:04:13;12.25;73.43
64961;SHT31;51487;52.266;10.542;2022-10-19T16:06:43;12.17;73.28
64961;SHT31;51487;52.266;10.542;2022-10-19T16:09:17;12.12;72.76
64961;SHT31;51487;52.266;10.542;2022-10-19T16:11:43;11.99;73.25
64961;SHT31;51487;52.266;10.542;2022-10-19T16:14:09;11.97;73.69
64961;SHT31;51487;52.266;10.542;2022-10-19T16:16:34;11.87;73.90
64961;SHT31;51487;52.266;10.542;2022-10-19T16:19:00;11.84;74.02
64961;SHT31;51487;52.266;10.542;2022-10-19T16:21:33;11.80;74.29
64961;SHT31;51487;52.266;10.542;2022-10-19T16:23:59;11.67;74.76
64961;SHT31;51487;52.266;10.542;2022-10-19T16:26:25;11.69;75.50
64961;SHT31;51487;52.266;10.542;2022-10-19T16:28:55;11.59;74.94
64961;SHT31;51487;52.266;10.542;2022-10-19T16:31:21;11.54;75.29
64961;SHT31;51487;52.266;10.542;2022-10-19T16:33:47;11.44;75.65
64961;SHT31;51487;52.266;10.542;2022-10-19T16:36:12;11.43;75.44
64961;SHT31;51487;52.266;10.542;2022-10-19T16:38:38;11.43;75.90
64961;SHT31;51487;52.266;10.542;2022-10-19T16:41:09;11.40;75.95
64961;SHT31;51487;52.266;10.542;2022-10-19T16:43:35;11.33;76.28
64961;SHT31;51487;52.266;10.542;2022-10-19T16:46:02;11.29;76.47
64961;SHT31;51487;52.266;10.542;2022-10-19T16:48:28;11.24;77.08
64961;SHT31;51487;52.266;10.542;2022-10-19T16:51:39;11.20;77.80
64961;SHT31;51487;52.266;10.542;2022-10-19T16:54:07;13.18;99.75
64961;SHT31;51487;52.266;10.542;2022-10-19T16:56:34;15.70;99.99
64961;SHT31;51487;52.266;10.542;2022-10-19T16:59:04;16.09;99.99
64961;SHT31;51487;52.266;10.542;2022-10-19T17:01:32;15.53;90.77
64961;SHT31;51487;52.266;10.542;2022-10-19T17:03:58;14.44;73.90
64961;SHT31;51487;52.266;10.542;2022-10-19T17:06:25;13.55;72.51
64961;SHT31;51487;52.266;10.542;2022-10-19T17:08:51;13.00;77.91
64961;SHT31;51487;52.266;10.542;2022-10-19T17:11:25;12.32;79.44
64961;SHT31;51487;52.266;10.542;2022-10-19T17:13:55;11.92;78.15
64961;SHT31;51487;52.266;10.542;2022-10-19T17:16:23;11.60;77.96
64961;SHT31;51487;52.266;10.542;2022-10-19T17:18:50;11.41;77.54
64961;SHT31;51487;52.266;10.542;2022-10-19T17:21:20;11.40;78.46
64961;SHT31;51487;52.266;10.542;2022-10-19T17:23:50;11.26;78.11
64961;SHT31;51487;52.266;10.542;2022-10-19T17:26:15;11.13;78.47
64961;SHT31;51487;52.266;10.542;2022-10-19T17:28:41;11.03;78.77
64961;SHT31;51487;52.266;10.542;2022-10-19T17:31:12;10.91;78.37
64961;SHT31;51487;52.266;10.542;2022-10-19T17:33:39;10.85;79.33
64961;SHT31;51487;52.266;10.542;2022-10-19T17:36:15;10.72;79.28
64961;SHT31;51487;52.266;10.542;2022-10-19T17:38:41;10.64;79.48
64961;SHT31;51487;52.266;10.542;2022-10-19T17:41:17;10.57;79.37
64961;SHT31;51487;52.266;10.542;2022-10-19T17:43:45;10.51;80.21
64961;SHT31;51487;52.266;10.542;2022-10-19T17:46:14;10.51;80.72
64961;SHT31;51487;52.266;10.542;2022-10-19T17:48:42;10.51;79.92
64961;SHT31;51487;52.266;10.542;2022-10-19T17:51:21;10.45;80.72
64961;SHT31;51487;52.266;10.542;2022-10-19T17:54:07;10.47;80.93
64961;SHT31;51487;52.266;10.542;2022-10-19T17:56:36;10.48;80.88
64961;SHT31;51487;52.266;10.542;2022-10-19T17:59:03;10.37;80.56